createdAt,value
2017-11-24T00:02:09.360Z,16.63
2017-11-24T00:04:36.873Z,19.03
2017-11-24T00:07:04.384Z,18.97
2017-11-24T00:09:31.931Z,14.47
2017-11-24T00:11:59.452Z,14.57
2017-11-24T00:14:27.017Z,24.90
2017-11-24T00:16:54.546Z,14.90
2017-11-24T00:19:22.083Z,13.00
2017-11-24T00:21:49.615Z,24.53
2017-11-24T00:24:18.819Z,19.33
2017-11-24T00:26:46.375Z,20.33
2017-11-24T00:29:14.652Z,21.50
2017-11-24T00:31:42.193Z,22.83
2017-11-24T00:34:09.709Z,18.77
2017-11-24T00:36:37.259Z,20.77
2017-11-24T00:39:04.768Z,19.83
2017-11-24T00:41:32.339Z,25.90
2017-11-24T00:43:59.862Z,19.97
2017-11-24T00:46:28.173Z,18.77
2017-11-24T00:48:55.728Z,20.47
2017-11-24T00:51:23.248Z,16.23
2017-11-24T00:53:50.795Z,21.13
2017-11-24T00:56:18.334Z,14.60
2017-11-24T00:58:45.891Z,17.70
2017-11-24T01:01:13.409Z,11.27
2017-11-24T01:03:41.720Z,11.27
2017-11-24T01:06:09.252Z,13.37
2017-11-24T01:08:36.804Z,21.33
2017-11-24T01:11:04.321Z,10.90
2017-11-24T01:13:32.599Z,17.80
2017-11-24T01:16:00.155Z,14.90
2017-11-24T01:18:27.667Z,21.63
2017-11-24T01:20:55.213Z,12.60
2017-11-24T01:23:22.720Z,13.37
2017-11-24T01:25:50.262Z,11.70
2017-11-24T01:28:18.533Z,20.40
2017-11-24T01:30:46.090Z,18.57
2017-11-24T01:33:13.596Z,13.37
2017-11-24T01:35:41.860Z,15.97
2017-11-24T01:38:09.404Z,14.10
2017-11-24T01:40:36.913Z,14.17
2017-11-24T01:43:04.499Z,10.10
2017-11-24T01:45:32.772Z,8.63
2017-11-24T01:48:00.325Z,15.67
2017-11-24T01:50:27.838Z,16.63
2017-11-24T01:52:56.117Z,11.63
2017-11-24T01:55:23.669Z,13.90
2017-11-24T01:57:51.372Z,14.17
2017-11-24T02:00:19.692Z,13.80
2017-11-24T02:02:47.208Z,11.20
2017-11-24T02:05:16.358Z,15.60
2017-11-24T02:07:43.871Z,6.60
2017-11-24T02:10:11.645Z,10.70
2017-11-24T02:12:39.195Z,16.03
2017-11-24T02:15:06.699Z,13.17
2017-11-24T02:17:34.256Z,10.27
2017-11-24T02:20:01.788Z,6.47
2017-11-24T02:22:30.105Z,11.43
2017-11-24T02:24:57.609Z,13.57
2017-11-24T02:27:25.143Z,9.17
2017-11-24T02:29:52.660Z,9.93
2017-11-24T02:32:20.207Z,10.20
2017-11-24T02:34:47.712Z,12.83
2017-11-24T02:37:15.230Z,11.20
2017-11-24T02:39:42.819Z,17.93
2017-11-24T02:42:10.331Z,12.87
2017-11-24T02:44:38.901Z,14.80
2017-11-24T02:47:06.414Z,8.93
2017-11-24T02:49:34.734Z,16.00
2017-11-24T02:52:02.254Z,16.73
2017-11-24T02:54:29.794Z,15.40
2017-11-24T02:56:57.318Z,14.33
2017-11-24T02:59:25.629Z,15.53
2017-11-24T03:01:53.144Z,15.53
2017-11-24T03:04:20.667Z,13.53
2017-11-24T03:06:48.212Z,10.97
2017-11-24T03:09:15.715Z,17.00
2017-11-24T03:11:43.266Z,15.37
2017-11-24T03:14:11.534Z,14.27
2017-11-24T03:16:39.084Z,10.10
2017-11-24T03:19:06.598Z,12.60
2017-11-24T03:21:34.143Z,10.80
2017-11-24T03:24:01.655Z,12.00
2017-11-24T03:26:29.201Z,10.07
2017-11-24T03:28:56.698Z,9.50
2017-11-24T03:31:27.283Z,9.03
2017-11-24T03:33:54.792Z,9.73
2017-11-24T03:36:23.128Z,11.13
2017-11-24T03:38:50.649Z,10.53
2017-11-24T03:41:18.177Z,15.13
2017-11-24T03:43:45.703Z,11.33
2017-11-24T03:46:14.025Z,7.53
2017-11-24T03:48:41.535Z,8.13
2017-11-24T03:51:09.087Z,9.13
2017-11-24T03:53:36.601Z,11.60
2017-11-24T03:56:04.905Z,10.73
2017-11-24T03:58:33.201Z,10.13
2017-11-24T04:01:00.765Z,11.20
2017-11-24T04:03:29.037Z,9.23
2017-11-24T04:05:56.566Z,18.13
2017-11-24T04:08:24.067Z,11.43
2017-11-24T04:10:51.591Z,8.10
2017-11-24T04:13:19.108Z,11.20
2017-11-24T04:15:46.650Z,6.70
2017-11-24T04:18:14.166Z,9.30
2017-11-24T04:20:41.685Z,4.60
2017-11-24T04:23:09.174Z,7.40
2017-11-24T04:25:36.726Z,6.13
2017-11-24T04:28:04.408Z,5.57
2017-11-24T04:30:31.946Z,3.80
2017-11-24T04:33:00.222Z,7.93
2017-11-24T04:35:29.472Z,5.53
2017-11-24T04:37:56.999Z,7.30
2017-11-24T04:40:24.538Z,8.60
2017-11-24T04:42:52.046Z,5.07
2017-11-24T04:45:19.578Z,3.70
2017-11-24T04:47:47.083Z,9.60
2017-11-24T04:50:14.613Z,8.07
2017-11-24T04:52:42.160Z,5.57
2017-11-24T04:55:09.656Z,4.30
2017-11-24T04:57:37.183Z,9.00
2017-11-24T05:00:05.498Z,6.90
2017-11-24T05:02:32.995Z,8.87
2017-11-24T05:05:00.548Z,6.13
2017-11-24T05:07:28.057Z,5.97
2017-11-24T05:09:56.416Z,8.50
2017-11-24T05:12:24.179Z,6.50
2017-11-24T05:14:51.675Z,5.17
2017-11-24T05:17:19.220Z,7.27
2017-11-24T05:19:46.735Z,8.40
2017-11-24T05:22:14.271Z,10.50
2017-11-24T05:24:41.789Z,7.70
2017-11-24T05:27:23.718Z,4.23
2017-11-24T05:29:52.615Z,5.50
2017-11-24T05:35:57.785Z,15.90
2017-11-24T05:38:39.804Z,3.93
2017-11-24T05:41:08.709Z,7.37
2017-11-24T05:43:36.473Z,5.70
2017-11-24T05:46:04.010Z,10.77
2017-11-24T05:48:31.545Z,5.60
2017-11-24T05:50:59.507Z,7.30
2017-11-24T05:53:27.831Z,5.90
2017-11-24T05:55:56.100Z,8.53
2017-11-24T05:58:23.608Z,8.07
2017-11-24T06:00:51.252Z,7.27
2017-11-24T06:03:18.765Z,10.63
2017-11-24T06:05:46.302Z,9.00
2017-11-24T06:08:14.854Z,6.33
2017-11-24T06:10:42.430Z,4.83
2017-11-24T06:13:09.937Z,4.20
2017-11-24T06:15:37.443Z,10.67
2017-11-24T06:18:04.989Z,7.80
2017-11-24T06:20:33.254Z,6.97
2017-11-24T06:23:00.798Z,6.63
2017-11-24T06:25:28.353Z,3.80
2017-11-24T06:27:55.858Z,5.70
2017-11-24T06:30:23.392Z,5.53
2017-11-24T06:32:50.906Z,11.83
2017-11-24T06:35:18.447Z,6.63
2017-11-24T06:37:45.954Z,8.60
2017-11-24T06:40:13.658Z,5.50
2017-11-24T06:42:41.299Z,4.80
2017-11-24T06:45:08.801Z,14.17
2017-11-24T06:47:36.342Z,5.83
2017-11-24T06:50:03.837Z,4.27
2017-11-24T06:52:31.341Z,3.97
2017-11-24T06:54:58.866Z,4.93
2017-11-24T06:57:26.362Z,6.40
2017-11-24T06:59:53.899Z,7.00
2017-11-24T07:02:21.399Z,6.63
2017-11-24T07:04:49.714Z,5.33
2017-11-24T07:07:17.209Z,4.07
2017-11-24T07:09:44.714Z,6.00
2017-11-24T07:12:12.242Z,3.93
2017-11-24T07:14:39.741Z,8.27
2017-11-24T07:17:08.598Z,7.90
2017-11-24T07:19:36.111Z,9.77
2017-11-24T07:22:03.672Z,9.80
2017-11-24T07:24:31.167Z,13.60
2017-11-24T07:26:58.662Z,12.03
2017-11-24T07:29:26.233Z,12.90
2017-11-24T07:31:54.516Z,10.67
2017-11-24T07:34:22.055Z,13.90
2017-11-24T07:36:49.550Z,10.60
2017-11-24T07:39:17.099Z,12.33
2017-11-24T07:41:44.601Z,12.60
2017-11-24T07:44:12.094Z,14.13
2017-11-24T07:46:40.398Z,22.83
2017-11-24T07:49:07.899Z,14.23
2017-11-24T07:51:35.425Z,17.37
2017-11-24T07:54:03.681Z,12.60
2017-11-24T07:56:31.223Z,14.93
2017-11-24T07:58:58.735Z,18.67
2017-11-24T08:01:26.248Z,15.80
2017-11-24T08:03:53.774Z,17.30
2017-11-24T08:06:21.287Z,17.57
2017-11-24T08:08:48.832Z,15.97
2017-11-24T08:11:17.119Z,13.03
2017-11-24T08:13:45.427Z,12.27
2017-11-24T08:16:12.930Z,13.70
2017-11-24T08:18:40.424Z,15.70
2017-11-24T08:21:07.960Z,17.87
2017-11-24T08:23:35.470Z,15.33
2017-11-24T08:26:03.690Z,16.80
2017-11-24T08:28:31.962Z,18.97
2017-11-24T08:31:00.893Z,18.33
2017-11-24T08:33:28.938Z,20.57
2017-11-24T08:35:56.475Z,18.83
2017-11-24T08:38:23.978Z,17.10
2017-11-24T08:40:51.506Z,15.60
2017-11-24T08:43:18.997Z,19.10
2017-11-24T08:45:46.582Z,21.60
2017-11-24T08:48:19.816Z,13.77
2017-11-24T08:50:47.820Z,15.70
2017-11-24T08:53:15.347Z,20.00
2017-11-24T08:55:42.849Z,14.90
2017-11-24T08:58:10.388Z,11.53
2017-11-24T09:00:37.891Z,18.73
2017-11-24T09:03:06.515Z,15.93
2017-11-24T09:05:34.021Z,14.40
2017-11-24T09:08:02.286Z,16.00
2017-11-24T09:10:29.807Z,19.07
2017-11-24T09:12:57.347Z,18.67
2017-11-24T09:15:24.842Z,22.33
2017-11-24T09:17:52.375Z,16.53
2017-11-24T09:20:20.092Z,17.97
2017-11-24T09:22:47.589Z,15.40
2017-11-24T09:25:15.892Z,18.50
2017-11-24T09:27:43.417Z,15.83
2017-11-24T09:30:11.767Z,13.47
2017-11-24T09:32:39.262Z,13.70
2017-11-24T09:35:06.797Z,30.90
2017-11-24T09:37:35.063Z,19.30
2017-11-24T09:40:02.663Z,20.77
2017-11-24T09:42:30.163Z,17.33
2017-11-24T09:44:57.719Z,29.63
2017-11-24T09:47:25.232Z,18.30
2017-11-24T09:49:52.737Z,22.33
2017-11-24T09:52:21.034Z,17.37
2017-11-24T09:54:48.538Z,19.70
2017-11-24T09:57:16.075Z,23.97
2017-11-24T09:59:44.329Z,16.13
2017-11-24T10:02:11.862Z,15.30
2017-11-24T10:04:39.530Z,14.63
2017-11-24T10:07:07.078Z,14.70
2017-11-24T10:09:35.386Z,14.10
2017-11-24T10:12:03.007Z,17.03
2017-11-24T10:14:30.534Z,17.57
2017-11-24T10:16:58.031Z,15.40
2017-11-24T10:19:25.598Z,15.17
2017-11-24T10:21:58.705Z,12.40
2017-11-24T10:24:26.254Z,26.50
2017-11-24T10:26:53.753Z,28.77
2017-11-24T10:29:21.287Z,17.97
2017-11-24T10:31:48.805Z,17.27
2017-11-24T10:34:17.134Z,17.50
2017-11-24T10:36:44.633Z,14.40
2017-11-24T10:39:12.130Z,14.43
2017-11-24T10:41:39.659Z,15.60
2017-11-24T10:44:07.159Z,11.30
2017-11-24T10:46:34.998Z,9.37
2017-11-24T10:49:03.285Z,11.50
2017-11-24T10:51:31.583Z,9.80
2017-11-24T10:53:59.078Z,11.50
2017-11-24T10:56:26.669Z,9.60
2017-11-24T10:58:54.178Z,8.70
2017-11-24T11:01:21.721Z,13.13
2017-11-24T11:03:49.982Z,8.30
2017-11-24T11:06:17.482Z,13.10
2017-11-24T11:08:45.010Z,9.57
2017-11-24T11:11:12.508Z,11.00
2017-11-24T11:13:40.034Z,12.23
2017-11-24T11:16:08.297Z,12.27
2017-11-24T11:18:36.190Z,19.53
2017-11-24T11:21:03.698Z,8.63
2017-11-24T11:23:31.202Z,15.80
2017-11-24T11:25:58.742Z,14.90
2017-11-24T11:28:26.246Z,13.57
2017-11-24T11:30:53.783Z,10.70
2017-11-24T11:33:21.274Z,14.10
2017-11-24T11:35:48.809Z,6.63
2017-11-24T11:38:16.328Z,7.20
2017-11-24T11:40:43.905Z,13.00
2017-11-24T11:43:12.219Z,5.60
2017-11-24T11:45:39.718Z,5.60
2017-11-24T11:48:08.015Z,3.70
2017-11-24T11:50:35.513Z,3.57
2017-11-24T11:53:03.064Z,4.30
2017-11-24T11:55:30.555Z,6.30
2017-11-24T11:57:58.075Z,4.63
2017-11-24T12:00:25.575Z,4.40
2017-11-24T12:02:53.095Z,4.80
2017-11-24T12:05:20.595Z,6.23
2017-11-24T12:07:48.900Z,4.97
2017-11-24T12:10:17.160Z,6.80
2017-11-24T12:12:44.663Z,10.77
2017-11-24T12:15:12.204Z,10.07
2017-11-24T12:17:39.727Z,5.93
2017-11-24T12:20:07.286Z,9.13
2017-11-24T12:22:34.804Z,8.63
2017-11-24T12:25:02.340Z,10.27
2017-11-24T12:27:29.947Z,13.77
2017-11-24T12:29:57.490Z,16.53
2017-11-24T12:32:25.006Z,14.67
2017-11-24T12:34:52.559Z,14.30
2017-11-24T12:37:20.103Z,13.57
2017-11-24T12:39:47.605Z,15.33
2017-11-24T12:42:15.153Z,14.57
2017-11-24T12:44:42.705Z,11.60
2017-11-24T12:47:10.392Z,15.83
2017-11-24T12:49:37.886Z,9.00
2017-11-24T12:52:05.393Z,19.70
2017-11-24T12:54:32.926Z,12.50
2017-11-24T12:57:00.571Z,16.13
2017-11-24T12:59:29.010Z,11.50
2017-11-24T13:01:56.507Z,9.83
2017-11-24T13:04:24.043Z,16.30
2017-11-24T13:06:51.605Z,13.70
2017-11-24T13:09:19.309Z,11.97
2017-11-24T13:11:48.907Z,17.93
2017-11-24T13:14:16.462Z,13.47
2017-11-24T13:16:43.951Z,13.80
2017-11-24T13:19:11.499Z,12.07
2017-11-24T13:21:39.013Z,14.00
2017-11-24T13:24:06.514Z,12.37
2017-11-24T13:26:34.844Z,13.40
2017-11-24T13:29:02.350Z,12.23
2017-11-24T13:31:29.883Z,9.57
2017-11-24T13:33:57.406Z,11.53
2017-11-24T13:36:24.936Z,15.70
2017-11-24T13:38:52.427Z,15.27
2017-11-24T13:41:19.975Z,12.70
2017-11-24T13:43:47.479Z,16.33
2017-11-24T13:46:14.979Z,12.23
2017-11-24T13:48:43.274Z,16.27
2017-11-24T13:51:11.543Z,10.00
2017-11-24T13:53:39.071Z,13.03
2017-11-24T13:56:06.570Z,11.37
2017-11-24T13:58:34.150Z,8.57
2017-11-24T14:01:01.680Z,11.60
2017-11-24T14:03:29.991Z,13.70
2017-11-24T14:05:57.550Z,6.73
2017-11-24T14:08:25.100Z,11.23
2017-11-24T14:10:52.595Z,8.30
2017-11-24T14:13:20.100Z,10.20
2017-11-24T14:15:47.631Z,10.97
2017-11-24T14:18:15.127Z,11.63
2017-11-24T14:20:42.696Z,10.03
2017-11-24T14:23:10.190Z,24.33
2017-11-24T14:25:37.725Z,15.73
2017-11-24T14:28:05.248Z,14.73
2017-11-24T14:30:32.779Z,7.80
2017-11-24T14:33:00.275Z,10.37
2017-11-24T14:35:27.835Z,10.47
2017-11-24T14:37:55.326Z,10.53
2017-11-24T14:40:23.596Z,10.97
2017-11-24T14:42:51.151Z,10.27
2017-11-24T14:45:18.651Z,10.60
2017-11-24T14:47:46.195Z,11.47
2017-11-24T14:50:13.699Z,9.30
2017-11-24T14:52:41.612Z,11.57
2017-11-24T14:55:09.115Z,11.90
2017-11-24T14:57:36.675Z,17.87
2017-11-24T15:00:04.176Z,11.37
2017-11-24T15:02:31.754Z,12.63
2017-11-24T15:04:59.260Z,13.97
2017-11-24T15:07:26.790Z,15.53
2017-11-24T15:09:54.340Z,11.13
2017-11-24T15:12:21.844Z,13.93
2017-11-24T15:14:49.379Z,11.87
2017-11-24T15:17:16.875Z,19.97
2017-11-24T15:19:44.430Z,15.00
2017-11-24T15:22:11.926Z,18.33
2017-11-24T15:24:39.463Z,14.07
2017-11-24T15:27:06.963Z,12.80
2017-11-24T15:29:34.530Z,19.40
2017-11-24T15:32:02.030Z,18.20
2017-11-24T15:34:30.297Z,14.03
2017-11-24T15:36:57.900Z,15.40
2017-11-24T15:39:26.158Z,16.03
2017-11-24T15:41:53.722Z,15.17
2017-11-24T15:44:21.213Z,13.30
2017-11-24T15:46:48.758Z,20.03
2017-11-24T15:49:16.264Z,14.57
2017-11-24T15:51:43.856Z,21.73
2017-11-24T15:54:11.376Z,13.90
2017-11-24T15:56:38.889Z,16.07
2017-11-24T15:59:06.418Z,18.70
2017-11-24T16:01:33.920Z,23.33
2017-11-24T16:04:01.466Z,19.77
2017-11-24T16:06:28.972Z,14.70
2017-11-24T16:08:56.557Z,17.77
2017-11-24T16:11:24.072Z,20.67
2017-11-24T16:13:56.715Z,17.47
2017-11-24T16:16:24.983Z,20.70
2017-11-24T16:18:52.548Z,19.23
2017-11-24T16:21:20.853Z,18.63
2017-11-24T16:23:48.408Z,19.30
2017-11-24T16:26:15.978Z,18.63
2017-11-24T16:28:43.507Z,17.23
2017-11-24T16:31:11.048Z,18.57
2017-11-24T16:33:38.598Z,20.10
2017-11-24T16:36:06.151Z,17.57
2017-11-24T16:38:33.673Z,18.20
2017-11-24T16:41:02.024Z,21.00
2017-11-24T16:43:29.595Z,18.30
2017-11-24T16:45:57.094Z,20.93
2017-11-24T16:48:24.660Z,22.47
2017-11-24T16:50:52.172Z,16.80
2017-11-24T16:53:19.730Z,21.43
2017-11-24T16:55:48.186Z,20.80
2017-11-24T16:58:15.695Z,20.83
2017-11-24T17:00:44.064Z,27.57
2017-11-24T17:03:11.583Z,21.27
2017-11-24T17:05:39.185Z,21.70
2017-11-24T17:08:06.735Z,23.07
2017-11-24T17:10:34.341Z,28.80
2017-11-24T17:13:01.847Z,25.00
2017-11-24T17:15:30.494Z,24.73
2017-11-24T17:17:58.047Z,26.63
2017-11-24T17:20:25.708Z,31.37
2017-11-24T17:22:53.259Z,24.77
2017-11-24T17:25:21.542Z,36.63
2017-11-24T17:27:49.084Z,36.57
2017-11-24T17:30:16.579Z,32.73
2017-11-24T17:32:44.124Z,33.80
2017-11-24T17:35:11.638Z,31.70
2017-11-24T17:37:40.560Z,45.83
2017-11-24T17:40:08.086Z,32.40
2017-11-24T17:42:35.686Z,34.40
2017-11-24T17:45:03.203Z,41.27
2017-11-24T17:47:30.698Z,42.27
2017-11-24T17:49:58.228Z,41.53
2017-11-24T17:52:25.743Z,42.47
2017-11-24T17:54:54.192Z,47.47
2017-11-24T17:57:21.697Z,58.00
2017-11-24T17:59:49.241Z,60.00
2017-11-24T18:02:16.737Z,65.70
2017-11-24T18:04:44.278Z,44.00
2017-11-24T18:07:11.782Z,48.63
2017-11-24T18:09:39.306Z,46.70
2017-11-24T18:12:06.872Z,48.70
2017-11-24T18:14:34.435Z,43.13
2017-11-24T18:17:01.983Z,45.80
2017-11-24T18:19:29.479Z,49.43
2017-11-24T18:21:57.109Z,58.90
2017-11-24T18:24:24.643Z,47.50
2017-11-24T18:26:52.230Z,48.27
2017-11-24T18:29:19.742Z,64.00
2017-11-24T18:31:47.296Z,62.27
2017-11-24T18:34:14.795Z,55.87
2017-11-24T18:36:42.348Z,63.77
2017-11-24T18:39:09.931Z,68.43
2017-11-24T18:41:37.450Z,58.43
2017-11-24T18:44:04.995Z,59.93
2017-11-24T18:46:32.511Z,61.80
2017-11-24T18:49:00.040Z,53.37
2017-11-24T18:51:28.323Z,77.47
2017-11-24T18:53:55.896Z,75.90
2017-11-24T18:56:23.407Z,90.00
2017-11-24T18:58:50.922Z,70.57
2017-11-24T19:01:18.499Z,94.23
2017-11-24T19:03:46.016Z,96.33
2017-11-24T19:06:13.624Z,98.37
2017-11-24T19:08:41.136Z,71.73
2017-11-24T19:11:09.446Z,91.87
2017-11-24T19:13:37.719Z,90.53
2017-11-24T19:16:06.086Z,97.83
2017-11-24T19:18:33.609Z,87.63
2017-11-24T19:21:01.119Z,81.17
2017-11-24T19:23:28.675Z,84.17
2017-11-24T19:25:56.204Z,71.53
2017-11-24T19:28:23.771Z,68.40
2017-11-24T19:30:52.042Z,76.63
2017-11-24T19:33:19.607Z,81.63
2017-11-24T19:35:47.154Z,86.07
2017-11-24T19:38:14.691Z,66.03
2017-11-24T19:40:43.007Z,74.13
2017-11-24T19:43:10.517Z,92.73
2017-11-24T19:45:38.090Z,76.37
2017-11-24T19:48:05.623Z,84.80
2017-11-24T19:50:33.129Z,78.83
2017-11-24T19:53:00.812Z,77.10
2017-11-24T19:55:28.334Z,82.43
2017-11-24T19:57:55.871Z,65.63
2017-11-24T20:00:23.369Z,65.37
2017-11-24T20:02:50.937Z,70.90
2017-11-24T20:05:18.467Z,76.77
2017-11-24T20:07:46.015Z,75.13
2017-11-24T20:10:13.582Z,85.10
2017-11-24T20:12:41.094Z,60.93
2017-11-24T20:15:08.669Z,73.00
2017-11-24T20:17:36.951Z,65.80
2017-11-24T20:20:04.495Z,73.23
2017-11-24T20:22:31.998Z,84.43
2017-11-24T20:24:59.592Z,72.40
2017-11-24T20:27:27.863Z,72.83
2017-11-24T20:29:56.139Z,70.67
2017-11-24T20:32:23.704Z,61.93
2017-11-24T20:34:51.265Z,56.73
2017-11-24T20:37:18.883Z,56.10
2017-11-24T20:39:46.386Z,48.50
2017-11-24T20:42:13.957Z,36.43
2017-11-24T20:44:41.467Z,34.73
2017-11-24T20:47:09.034Z,36.60
2017-11-24T20:49:36.558Z,43.10
2017-11-24T20:52:04.111Z,40.53
2017-11-24T20:54:32.391Z,46.73
2017-11-24T20:56:59.887Z,39.70
2017-11-24T20:59:27.426Z,39.70
2017-11-24T21:01:54.923Z,32.67
2017-11-24T21:04:23.247Z,34.50
2017-11-24T21:06:50.759Z,40.80
2017-11-24T21:09:18.307Z,32.20
2017-11-24T21:11:45.818Z,37.03
2017-11-24T21:14:14.131Z,34.03
2017-11-24T21:16:41.633Z,43.27
2017-11-24T21:19:09.183Z,36.50
2017-11-24T21:21:36.685Z,35.87
2017-11-24T21:24:04.362Z,36.53
2017-11-24T21:26:31.917Z,41.57
2017-11-24T21:28:59.428Z,38.20
2017-11-24T21:31:26.995Z,41.67
2017-11-24T21:33:54.500Z,36.57
2017-11-24T21:36:22.047Z,33.67
2017-11-24T21:38:49.555Z,41.37
2017-11-24T21:41:17.131Z,31.03
2017-11-24T21:43:44.643Z,39.27
2017-11-24T21:46:12.242Z,44.97
2017-11-24T21:48:39.770Z,34.43
2017-11-24T21:51:07.330Z,36.23
2017-11-24T21:53:34.874Z,35.43
2017-11-24T21:56:03.155Z,34.70
2017-11-24T21:58:30.701Z,41.33
2017-11-24T22:00:58.214Z,33.50
2017-11-24T22:03:25.765Z,34.80
2017-11-24T22:05:54.067Z,32.80
2017-11-24T22:08:21.669Z,38.13
2017-11-24T22:10:49.183Z,39.83
2017-11-24T22:13:16.701Z,43.77
2017-11-24T22:15:44.257Z,39.77
2017-11-24T22:18:11.755Z,37.37
2017-11-24T22:20:39.287Z,40.13
2017-11-24T22:23:07.571Z,40.97
2017-11-24T22:25:35.118Z,41.83
2017-11-24T22:28:02.615Z,37.53
2017-11-24T22:30:30.133Z,42.40
2017-11-24T22:32:57.684Z,44.33
2017-11-24T22:35:25.215Z,40.07
2017-11-24T22:37:52.774Z,39.60
2017-11-24T22:40:20.284Z,45.30
2017-11-24T22:42:48.598Z,40.67
2017-11-24T22:45:16.109Z,40.40
2017-11-24T22:47:43.618Z,46.77
2017-11-24T22:50:11.955Z,44.07
2017-11-24T22:52:39.472Z,45.13
2017-11-24T22:55:07.039Z,49.53
2017-11-24T22:57:34.546Z,53.27
2017-11-24T23:00:02.111Z,43.53
2017-11-24T23:02:29.610Z,46.27
2017-11-24T23:04:57.155Z,39.90
2017-11-24T23:07:24.658Z,44.57
2017-11-24T23:09:52.159Z,43.03
2017-11-24T23:12:20.591Z,40.20
2017-11-24T23:14:48.101Z,44.43
2017-11-24T23:17:15.648Z,46.17
2017-11-24T23:19:43.148Z,40.17
2017-11-24T23:22:10.690Z,42.70
2017-11-24T23:24:38.187Z,40.70
2017-11-24T23:27:05.746Z,37.00
2017-11-24T23:29:33.256Z,42.07
2017-11-24T23:32:00.817Z,34.57
2017-11-24T23:34:28.321Z,38.60
2017-11-24T23:36:56.590Z,40.03
2017-11-24T23:39:24.131Z,34.43
2017-11-24T23:41:51.631Z,38.20
2017-11-24T23:44:19.946Z,35.90
2017-11-24T23:46:47.458Z,36.83
2017-11-24T23:49:14.995Z,39.70
2017-11-24T23:51:42.501Z,47.27
2017-11-24T23:54:10.039Z,46.30
2017-11-24T23:56:37.544Z,57.53
2017-11-24T23:59:05.093Z,45.17
